createdAt,value
2023-05-19T00:10:01.718Z,5.50
2023-05-19T00:20:11.088Z,4.60
2023-05-19T00:30:15.761Z,6.60
2023-05-19T00:40:19.281Z,5.80
2023-05-19T00:50:23.820Z,8.60
2023-05-19T01:00:29.412Z,5.10
2023-05-19T01:10:33.636Z,9.10
2023-05-19T01:20:52.273Z,3.70
2023-05-19T01:30:59.731Z,7.30
2023-05-19T01:41:03.333Z,4.90
2023-05-19T01:51:07.057Z,5.90
2023-05-19T02:01:11.644Z,7.30
2023-05-19T02:11:19.278Z,3.50
2023-05-19T02:21:23.292Z,3.20
2023-05-19T02:31:27.036Z,5.70
2023-05-19T02:41:31.054Z,6.60
2023-05-19T02:51:34.831Z,4.90
2023-05-19T03:01:39.925Z,6.40
2023-05-19T03:11:44.005Z,4.00
2023-05-19T03:21:48.274Z,5.70
2023-05-19T03:31:52.275Z,7.80
2023-05-19T03:41:56.198Z,6.40
2023-05-19T03:52:03.305Z,8.60
2023-05-19T04:02:08.264Z,4.60
2023-05-19T04:12:15.683Z,4.90
2023-05-19T04:22:23.307Z,7.90
2023-05-19T04:32:26.557Z,5.40
2023-05-19T04:42:30.229Z,8.80
2023-05-19T04:52:34.019Z,15.80
2023-05-19T05:02:38.432Z,5.60
2023-05-19T05:12:47.512Z,8.20
2023-05-19T05:22:52.354Z,7.60
2023-05-19T05:32:56.283Z,4.60
2023-05-19T05:43:00.178Z,3.90
2023-05-19T05:53:06.036Z,7.80
2023-05-19T06:03:10.341Z,5.00
2023-05-19T06:13:15.815Z,7.60
2023-05-19T06:23:19.551Z,8.30
2023-05-19T06:33:24.663Z,7.80
2023-05-19T06:43:29.837Z,5.40
2023-05-19T06:53:34.258Z,9.40
2023-05-19T07:03:38.151Z,12.00
2023-05-19T07:13:42.108Z,8.30
2023-05-19T07:23:45.695Z,10.00
2023-05-19T07:33:49.553Z,8.40
2023-05-19T07:43:53.504Z,9.10
2023-05-19T07:53:57.872Z,11.20
2023-05-19T08:04:02.103Z,9.20
2023-05-19T08:14:05.905Z,8.20
2023-05-19T08:24:09.846Z,11.10
2023-05-19T08:34:13.446Z,7.90
2023-05-19T08:44:19.040Z,8.00
2023-05-19T08:54:29.875Z,11.80
2023-05-19T09:04:34.571Z,6.90
2023-05-19T09:14:41.897Z,9.90
2023-05-19T09:24:46.934Z,8.00
2023-05-19T09:34:50.538Z,7.90
2023-05-19T09:45:00.282Z,6.40
2023-05-19T09:55:03.814Z,7.10
2023-05-19T10:05:08.031Z,7.80
2023-05-19T10:15:17.687Z,9.70
2023-05-19T10:25:25.065Z,10.40
2023-05-19T10:35:49.948Z,7.00
2023-05-19T10:45:55.088Z,14.70
2023-05-19T10:56:03.374Z,10.00
2023-05-19T11:06:24.930Z,9.20
2023-05-19T11:16:28.677Z,10.00
2023-05-19T11:26:42.506Z,15.20
2023-05-19T11:36:47.738Z,12.80
2023-05-19T11:46:51.607Z,11.60
2023-05-19T11:56:55.338Z,11.40
2023-05-19T12:06:59.351Z,12.90
2023-05-19T12:17:10.274Z,10.30
2023-05-19T12:27:22.844Z,9.40
2023-05-19T12:37:29.381Z,11.90
2023-05-19T12:47:34.763Z,14.50
2023-05-19T12:57:40.932Z,14.70
2023-05-19T13:07:53.757Z,13.50
2023-05-19T13:17:58.445Z,11.50
2023-05-19T13:28:04.981Z,14.80
2023-05-19T13:38:10.854Z,13.60
2023-05-19T13:48:15.385Z,11.50
2023-05-19T13:58:19.724Z,13.70
2023-05-19T14:08:23.349Z,10.70
2023-05-19T14:18:26.640Z,15.30
2023-05-19T14:28:30.417Z,16.50
2023-05-19T14:38:37.822Z,11.00
2023-05-19T14:48:41.444Z,13.00
2023-05-19T14:58:45.321Z,16.60
2023-05-19T15:08:49.386Z,15.30
2023-05-19T15:18:53.395Z,16.90
2023-05-19T15:28:57.317Z,12.30
2023-05-19T15:39:00.353Z,16.90
2023-05-19T15:49:04.442Z,16.70
2023-05-19T15:59:08.219Z,18.10
2023-05-19T16:09:12.346Z,15.60
2023-05-19T16:19:16.118Z,19.10
2023-05-19T16:29:20.368Z,16.10
2023-05-19T16:39:24.252Z,24.40
2023-05-19T16:49:28.295Z,24.50
2023-05-19T16:59:31.894Z,24.50
2023-05-19T17:09:35.495Z,23.90
2023-05-19T17:19:39.179Z,22.10
2023-05-19T17:29:42.816Z,18.00
2023-05-19T17:39:46.985Z,21.60
2023-05-19T17:49:50.700Z,22.80
2023-05-19T17:59:55.837Z,18.70
2023-05-19T18:10:00.106Z,21.30
2023-05-19T18:20:03.790Z,24.80
2023-05-19T18:30:08.362Z,21.10
2023-05-19T18:40:11.343Z,17.50
2023-05-19T18:50:15.995Z,23.50
2023-05-19T19:00:20.321Z,18.30
2023-05-19T19:10:24.021Z,17.60
2023-05-19T19:20:27.745Z,15.00
2023-05-19T19:30:35.125Z,16.20
2023-05-19T19:40:39.037Z,18.30
2023-05-19T19:50:42.974Z,16.10
2023-05-19T20:00:46.518Z,12.70
2023-05-19T20:10:50.587Z,16.00
2023-05-19T20:20:57.976Z,20.20
2023-05-19T20:31:01.902Z,21.00
2023-05-19T20:41:06.060Z,23.40
2023-05-19T20:51:09.595Z,19.40
2023-05-19T21:01:13.305Z,23.60
2023-05-19T21:11:17.778Z,27.30
2023-05-19T21:21:21.410Z,27.30
2023-05-19T21:31:25.087Z,30.70
2023-05-19T21:41:29.702Z,28.10
2023-05-19T21:51:33.898Z,32.50
2023-05-19T22:01:37.535Z,32.10
2023-05-19T22:11:41.347Z,32.70
2023-05-19T22:21:51.784Z,29.60
2023-05-19T22:31:57.593Z,33.70
2023-05-19T22:42:02.068Z,29.60
2023-05-19T22:52:07.410Z,32.40
2023-05-19T23:02:11.030Z,29.60
2023-05-19T23:12:16.034Z,25.10
2023-05-19T23:22:19.806Z,24.10
2023-05-19T23:32:23.614Z,23.60
2023-05-19T23:42:28.217Z,21.50
2023-05-19T23:52:32.203Z,22.10
